sensor_id;sensor_type;location;lat;lon;timestamp;P1;durP1;ratioP1;P2;durP2;ratioP2
16308;SDS011;8263;48.880;9.276;2023-02-25T00:02:09;134.93;;;125.25;;
16308;SDS011;8263;48.880;9.276;2023-02-25T00:04:37;135.55;;;125.88;;
16308;SDS011;8263;48.880;9.276;2023-02-25T00:07:04;135.98;;;126.18;;
16308;SDS011;8263;48.880;9.276;2023-02-25T00:09:31;136.05;;;126.22;;
16308;SDS011;8263;48.880;9.276;2023-02-25T00:11:58;135.30;;;125.53;;
16308;SDS011;8263;48.880;9.276;2023-02-25T00:14:24;134.82;;;125.18;;
16308;SDS011;8263;48.880;9.276;2023-02-25T00:16:51;136.15;;;126.15;;
16308;SDS011;8263;48.880;9.276;2023-02-25T00:19:19;136.05;;;126.28;;
16308;SDS011;8263;48.880;9.276;2023-02-25T00:21:47;134.82;;;125.20;;
16308;SDS011;8263;48.880;9.276;2023-02-25T00:24:14;137.23;;;127.40;;
16308;SDS011;8263;48.880;9.276;2023-02-25T00:26:40;135.82;;;126.13;;
16308;SDS011;8263;48.880;9.276;2023-02-25T00:29:07;136.75;;;126.93;;
16308;SDS011;8263;48.880;9.276;2023-02-25T00:31:33;134.55;;;124.95;;
16308;SDS011;8263;48.880;9.276;2023-02-25T00:34:00;136.55;;;126.72;;
16308;SDS011;8263;48.880;9.276;2023-02-25T00:36:26;136.00;;;126.30;;
16308;SDS011;8263;48.880;9.276;2023-02-25T00:38:55;137.55;;;127.57;;
16308;SDS011;8263;48.880;9.276;2023-02-25T00:41:22;137.65;;;127.75;;
16308;SDS011;8263;48.880;9.276;2023-02-25T00:43:50;137.02;;;127.22;;
16308;SDS011;8263;48.880;9.276;2023-02-25T00:46:17;135.35;;;125.63;;
16308;SDS011;8263;48.880;9.276;2023-02-25T00:48:43;137.05;;;127.05;;
16308;SDS011;8263;48.880;9.276;2023-02-25T00:51:10;138.73;;;128.73;;
16308;SDS011;8263;48.880;9.276;2023-02-25T00:53:37;136.52;;;126.70;;
16308;SDS011;8263;48.880;9.276;2023-02-25T00:56:06;137.52;;;127.63;;
16308;SDS011;8263;48.880;9.276;2023-02-25T00:58:34;137.18;;;127.32;;
16308;SDS011;8263;48.880;9.276;2023-02-25T01:01:00;138.15;;;128.18;;
16308;SDS011;8263;48.880;9.276;2023-02-25T01:03:27;138.50;;;128.40;;
16308;SDS011;8263;48.880;9.276;2023-02-25T01:05:54;139.07;;;128.90;;
16308;SDS011;8263;48.880;9.276;2023-02-25T01:08:20;138.68;;;128.57;;
16308;SDS011;8263;48.880;9.276;2023-02-25T01:10:46;137.90;;;127.90;;
16308;SDS011;8263;48.880;9.276;2023-02-25T01:13:14;138.80;;;128.60;;
16308;SDS011;8263;48.880;9.276;2023-02-25T01:15:41;139.55;;;129.32;;
16308;SDS011;8263;48.880;9.276;2023-02-25T01:18:08;139.65;;;129.35;;
16308;SDS011;8263;48.880;9.276;2023-02-25T01:20:36;139.57;;;129.40;;
16308;SDS011;8263;48.880;9.276;2023-02-25T01:23:03;140.57;;;130.32;;
16308;SDS011;8263;48.880;9.276;2023-02-25T01:25:29;138.98;;;128.98;;
16308;SDS011;8263;48.880;9.276;2023-02-25T01:27:56;140.93;;;130.63;;
16308;SDS011;8263;48.880;9.276;2023-02-25T01:30:24;139.40;;;129.23;;
16308;SDS011;8263;48.880;9.276;2023-02-25T01:32:50;138.30;;;128.05;;
16308;SDS011;8263;48.880;9.276;2023-02-25T01:35:17;138.13;;;128.20;;
16308;SDS011;8263;48.880;9.276;2023-02-25T01:37:43;137.68;;;127.75;;
16308;SDS011;8263;48.880;9.276;2023-02-25T01:40:12;139.57;;;129.43;;
16308;SDS011;8263;48.880;9.276;2023-02-25T01:42:41;139.30;;;128.68;;
16308;SDS011;8263;48.880;9.276;2023-02-25T01:45:15;136.75;;;126.95;;
16308;SDS011;8263;48.880;9.276;2023-02-25T01:47:49;137.50;;;127.60;;
16308;SDS011;8263;48.880;9.276;2023-02-25T01:50:16;137.18;;;127.28;;
16308;SDS011;8263;48.880;9.276;2023-02-25T01:52:43;137.50;;;127.65;;
16308;SDS011;8263;48.880;9.276;2023-02-25T01:55:10;138.15;;;128.18;;
16308;SDS011;8263;48.880;9.276;2023-02-25T01:57:36;138.80;;;128.80;;
16308;SDS011;8263;48.880;9.276;2023-02-25T02:00:04;137.90;;;128.00;;
16308;SDS011;8263;48.880;9.276;2023-02-25T02:02:35;140.23;;;130.07;;
16308;SDS011;8263;48.880;9.276;2023-02-25T02:05:05;139.55;;;129.40;;
16308;SDS011;8263;48.880;9.276;2023-02-25T02:07:32;137.88;;;127.85;;
16308;SDS011;8263;48.880;9.276;2023-02-25T02:09:58;139.70;;;129.60;;
16308;SDS011;8263;48.880;9.276;2023-02-25T02:12:26;136.23;;;126.43;;
16308;SDS011;8263;48.880;9.276;2023-02-25T02:14:53;137.95;;;128.00;;
16308;SDS011;8263;48.880;9.276;2023-02-25T02:17:21;138.18;;;128.18;;
16308;SDS011;8263;48.880;9.276;2023-02-25T02:20:08;136.73;;;126.75;;
16308;SDS011;8263;48.880;9.276;2023-02-25T02:22:45;139.52;;;129.45;;
16308;SDS011;8263;48.880;9.276;2023-02-25T02:30:41;139.48;;;129.27;;
16308;SDS011;8263;48.880;9.276;2023-02-25T02:33:15;139.30;;;129.20;;
16308;SDS011;8263;48.880;9.276;2023-02-25T02:35:46;140.05;;;129.93;;
16308;SDS011;8263;48.880;9.276;2023-02-25T02:38:17;138.50;;;128.50;;
16308;SDS011;8263;48.880;9.276;2023-02-25T02:40:49;139.63;;;129.52;;
16308;SDS011;8263;48.880;9.276;2023-02-25T02:43:20;140.77;;;130.43;;
16308;SDS011;8263;48.880;9.276;2023-02-25T02:45:48;140.95;;;130.68;;
16308;SDS011;8263;48.880;9.276;2023-02-25T02:48:18;141.10;;;130.75;;
16308;SDS011;8263;48.880;9.276;2023-02-25T02:50:46;137.68;;;127.72;;
16308;SDS011;8263;48.880;9.276;2023-02-25T02:53:17;139.25;;;129.18;;
16308;SDS011;8263;48.880;9.276;2023-02-25T02:55:46;138.57;;;128.57;;
16308;SDS011;8263;48.880;9.276;2023-02-25T02:58:14;138.68;;;128.68;;
16308;SDS011;8263;48.880;9.276;2023-02-25T03:00:43;139.32;;;129.20;;
16308;SDS011;8263;48.880;9.276;2023-02-25T03:03:12;141.75;;;131.35;;
16308;SDS011;8263;48.880;9.276;2023-02-25T03:05:41;141.18;;;130.88;;
16308;SDS011;8263;48.880;9.276;2023-02-25T03:08:10;141.40;;;131.02;;
16308;SDS011;8263;48.880;9.276;2023-02-25T03:10:39;139.35;;;129.27;;
16308;SDS011;8263;48.880;9.276;2023-02-25T03:13:06;140.82;;;130.48;;
16308;SDS011;8263;48.880;9.276;2023-02-25T03:15:33;139.82;;;129.73;;
16308;SDS011;8263;48.880;9.276;2023-02-25T03:18:01;138.73;;;128.68;;
16308;SDS011;8263;48.880;9.276;2023-02-25T03:20:29;140.88;;;130.60;;
16308;SDS011;8263;48.880;9.276;2023-02-25T03:23:03;139.95;;;129.85;;
16308;SDS011;8263;48.880;9.276;2023-02-25T03:25:34;139.30;;;129.23;;
16308;SDS011;8263;48.880;9.276;2023-02-25T03:28:01;139.95;;;129.65;;
16308;SDS011;8263;48.880;9.276;2023-02-25T03:30:29;137.75;;;127.80;;
16308;SDS011;8263;48.880;9.276;2023-02-25T03:32:57;140.95;;;130.73;;
16308;SDS011;8263;48.880;9.276;2023-02-25T03:35:25;139.98;;;129.82;;
16308;SDS011;8263;48.880;9.276;2023-02-25T03:37:54;140.55;;;130.35;;
16308;SDS011;8263;48.880;9.276;2023-02-25T03:40:24;140.40;;;130.25;;
16308;SDS011;8263;48.880;9.276;2023-02-25T03:42:52;137.82;;;127.93;;
16308;SDS011;8263;48.880;9.276;2023-02-25T03:45:19;139.45;;;129.40;;
16308;SDS011;8263;48.880;9.276;2023-02-25T03:47:46;139.90;;;129.80;;
16308;SDS011;8263;48.880;9.276;2023-02-25T03:50:14;139.57;;;129.52;;
16308;SDS011;8263;48.880;9.276;2023-02-25T03:52:43;139.05;;;129.00;;
16308;SDS011;8263;48.880;9.276;2023-02-25T03:55:10;136.68;;;126.88;;
16308;SDS011;8263;48.880;9.276;2023-02-25T03:57:39;139.70;;;129.60;;
16308;SDS011;8263;48.880;9.276;2023-02-25T04:00:06;138.60;;;128.60;;
16308;SDS011;8263;48.880;9.276;2023-02-25T04:02:40;139.30;;;129.25;;
16308;SDS011;8263;48.880;9.276;2023-02-25T04:05:07;137.27;;;127.38;;
16308;SDS011;8263;48.880;9.276;2023-02-25T04:07:34;139.32;;;129.25;;
16308;SDS011;8263;48.880;9.276;2023-02-25T04:10:00;137.13;;;127.28;;
16308;SDS011;8263;48.880;9.276;2023-02-25T04:12:27;141.05;;;130.80;;
16308;SDS011;8263;48.880;9.276;2023-02-25T04:14:54;139.20;;;129.15;;
16308;SDS011;8263;48.880;9.276;2023-02-25T04:17:21;139.80;;;129.70;;
16308;SDS011;8263;48.880;9.276;2023-02-25T04:19:47;140.30;;;130.13;;
16308;SDS011;8263;48.880;9.276;2023-02-25T04:22:14;139.27;;;129.18;;
16308;SDS011;8263;48.880;9.276;2023-02-25T04:24:40;141.27;;;130.98;;
16308;SDS011;8263;48.880;9.276;2023-02-25T04:27:07;139.45;;;129.38;;
16308;SDS011;8263;48.880;9.276;2023-02-25T04:29:33;139.73;;;129.57;;
16308;SDS011;8263;48.880;9.276;2023-02-25T04:32:01;140.38;;;130.18;;
16308;SDS011;8263;48.880;9.276;2023-02-25T04:34:27;140.45;;;130.25;;
16308;SDS011;8263;48.880;9.276;2023-02-25T04:36:53;138.85;;;128.82;;
16308;SDS011;8263;48.880;9.276;2023-02-25T04:39:20;141.35;;;131.05;;
16308;SDS011;8263;48.880;9.276;2023-02-25T04:41:46;138.52;;;128.52;;
16308;SDS011;8263;48.880;9.276;2023-02-25T04:44:13;138.50;;;128.48;;
16308;SDS011;8263;48.880;9.276;2023-02-25T04:46:40;139.13;;;129.07;;
16308;SDS011;8263;48.880;9.276;2023-02-25T04:49:08;140.45;;;130.25;;
16308;SDS011;8263;48.880;9.276;2023-02-25T04:51:35;141.30;;;131.00;;
16308;SDS011;8263;48.880;9.276;2023-02-25T04:54:02;140.85;;;130.63;;
16308;SDS011;8263;48.880;9.276;2023-02-25T04:56:28;141.30;;;131.00;;
16308;SDS011;8263;48.880;9.276;2023-02-25T04:58:55;140.88;;;130.68;;
16308;SDS011;8263;48.880;9.276;2023-02-25T05:01:22;139.73;;;129.60;;
16308;SDS011;8263;48.880;9.276;2023-02-25T05:03:48;140.30;;;130.10;;
16308;SDS011;8263;48.880;9.276;2023-02-25T05:06:22;140.13;;;129.95;;
16308;SDS011;8263;48.880;9.276;2023-02-25T05:08:48;140.32;;;130.13;;
16308;SDS011;8263;48.880;9.276;2023-02-25T05:11:16;141.25;;;130.95;;
16308;SDS011;8263;48.880;9.276;2023-02-25T05:13:42;140.98;;;130.75;;
16308;SDS011;8263;48.880;9.276;2023-02-25T05:16:10;138.88;;;128.82;;
16308;SDS011;8263;48.880;9.276;2023-02-25T05:18:36;138.18;;;128.18;;
16308;SDS011;8263;48.880;9.276;2023-02-25T05:21:03;140.95;;;130.52;;
16308;SDS011;8263;48.880;9.276;2023-02-25T05:23:33;140.48;;;130.27;;
16308;SDS011;8263;48.880;9.276;2023-02-25T05:25:59;140.70;;;130.43;;
16308;SDS011;8263;48.880;9.276;2023-02-25T05:28:26;140.68;;;130.48;;
16308;SDS011;8263;48.880;9.276;2023-02-25T05:30:52;141.63;;;131.32;;
16308;SDS011;8263;48.880;9.276;2023-02-25T05:33:19;141.25;;;130.95;;
16308;SDS011;8263;48.880;9.276;2023-02-25T05:35:45;138.48;;;128.48;;
16308;SDS011;8263;48.880;9.276;2023-02-25T05:38:13;140.73;;;130.48;;
16308;SDS011;8263;48.880;9.276;2023-02-25T05:40:42;142.18;;;131.82;;
16308;SDS011;8263;48.880;9.276;2023-02-25T05:43:08;141.02;;;130.77;;
16308;SDS011;8263;48.880;9.276;2023-02-25T05:45:34;141.00;;;130.70;;
16308;SDS011;8263;48.880;9.276;2023-02-25T05:48:01;141.05;;;130.75;;
16308;SDS011;8263;48.880;9.276;2023-02-25T05:50:27;139.02;;;128.98;;
16308;SDS011;8263;48.880;9.276;2023-02-25T05:52:55;139.43;;;129.32;;
16308;SDS011;8263;48.880;9.276;2023-02-25T05:55:22;139.10;;;129.00;;
16308;SDS011;8263;48.880;9.276;2023-02-25T05:57:50;139.75;;;129.50;;
16308;SDS011;8263;48.880;9.276;2023-02-25T06:00:16;140.88;;;130.65;;
16308;SDS011;8263;48.880;9.276;2023-02-25T06:02:45;141.05;;;130.77;;
16308;SDS011;8263;48.880;9.276;2023-02-25T06:05:12;140.10;;;129.90;;
16308;SDS011;8263;48.880;9.276;2023-02-25T06:07:38;138.98;;;128.90;;
16308;SDS011;8263;48.880;9.276;2023-02-25T06:10:05;138.65;;;128.60;;
16308;SDS011;8263;48.880;9.276;2023-02-25T06:12:32;138.82;;;128.77;;
16308;SDS011;8263;48.880;9.276;2023-02-25T06:15:00;140.45;;;130.25;;
16308;SDS011;8263;48.880;9.276;2023-02-25T06:17:27;140.60;;;130.40;;
16308;SDS011;8263;48.880;9.276;2023-02-25T06:19:53;141.20;;;130.90;;
16308;SDS011;8263;48.880;9.276;2023-02-25T06:22:20;139.52;;;129.40;;
16308;SDS011;8263;48.880;9.276;2023-02-25T06:24:47;140.25;;;130.05;;
16308;SDS011;8263;48.880;9.276;2023-02-25T06:27:14;139.25;;;129.15;;
16308;SDS011;8263;48.880;9.276;2023-02-25T06:29:40;140.52;;;130.32;;
16308;SDS011;8263;48.880;9.276;2023-02-25T06:32:08;139.23;;;129.15;;
16308;SDS011;8263;48.880;9.276;2023-02-25T06:34:35;139.20;;;129.10;;
16308;SDS011;8263;48.880;9.276;2023-02-25T06:37:02;138.10;;;128.10;;
16308;SDS011;8263;48.880;9.276;2023-02-25T06:39:28;140.27;;;130.07;;
16308;SDS011;8263;48.880;9.276;2023-02-25T06:41:55;141.38;;;131.07;;
16308;SDS011;8263;48.880;9.276;2023-02-25T06:44:21;141.15;;;130.80;;
16308;SDS011;8263;48.880;9.276;2023-02-25T06:46:48;139.60;;;129.50;;
16308;SDS011;8263;48.880;9.276;2023-02-25T06:49:16;139.40;;;129.30;;
16308;SDS011;8263;48.880;9.276;2023-02-25T06:51:43;140.82;;;130.60;;
16308;SDS011;8263;48.880;9.276;2023-02-25T06:54:09;142.18;;;131.77;;
16308;SDS011;8263;48.880;9.276;2023-02-25T06:56:36;141.48;;;131.07;;
16308;SDS011;8263;48.880;9.276;2023-02-25T06:59:02;141.32;;;131.02;;
16308;SDS011;8263;48.880;9.276;2023-02-25T07:01:29;141.13;;;130.82;;
16308;SDS011;8263;48.880;9.276;2023-02-25T07:03:56;139.80;;;129.63;;
16308;SDS011;8263;48.880;9.276;2023-02-25T07:06:24;139.88;;;129.75;;
16308;SDS011;8263;48.880;9.276;2023-02-25T07:08:50;141.10;;;130.80;;
16308;SDS011;8263;48.880;9.276;2023-02-25T07:11:25;141.05;;;130.75;;
16308;SDS011;8263;48.880;9.276;2023-02-25T07:13:53;141.18;;;130.88;;
16308;SDS011;8263;48.880;9.276;2023-02-25T07:16:19;141.05;;;130.80;;
16308;SDS011;8263;48.880;9.276;2023-02-25T07:18:46;139.63;;;129.52;;
16308;SDS011;8263;48.880;9.276;2023-02-25T07:21:13;139.48;;;129.38;;
16308;SDS011;8263;48.880;9.276;2023-02-25T07:23:41;138.07;;;128.10;;
16308;SDS011;8263;48.880;9.276;2023-02-25T07:26:08;140.82;;;130.57;;
16308;SDS011;8263;48.880;9.276;2023-02-25T07:28:35;140.30;;;129.65;;
16308;SDS011;8263;48.880;9.276;2023-02-25T07:31:02;140.10;;;129.95;;
16308;SDS011;8263;48.880;9.276;2023-02-25T07:33:28;139.43;;;129.32;;
16308;SDS011;8263;48.880;9.276;2023-02-25T07:35:55;140.90;;;130.52;;
16308;SDS011;8263;48.880;9.276;2023-02-25T07:38:22;140.55;;;130.25;;
16308;SDS011;8263;48.880;9.276;2023-02-25T07:40:50;141.57;;;131.27;;
16308;SDS011;8263;48.880;9.276;2023-02-25T07:43:16;140.20;;;130.00;;
16308;SDS011;8263;48.880;9.276;2023-02-25T07:45:42;141.10;;;130.80;;
16308;SDS011;8263;48.880;9.276;2023-02-25T07:48:09;140.13;;;129.95;;
16308;SDS011;8263;48.880;9.276;2023-02-25T07:50:35;141.27;;;130.98;;
16308;SDS011;8263;48.880;9.276;2023-02-25T07:53:03;139.85;;;129.70;;
16308;SDS011;8263;48.880;9.276;2023-02-25T07:55:29;141.73;;;131.32;;
16308;SDS011;8263;48.880;9.276;2023-02-25T07:57:58;140.75;;;130.52;;
16308;SDS011;8263;48.880;9.276;2023-02-25T08:00:24;140.88;;;130.63;;
16308;SDS011;8263;48.880;9.276;2023-02-25T08:02:51;140.82;;;130.43;;
16308;SDS011;8263;48.880;9.276;2023-02-25T08:05:18;141.45;;;130.27;;
16308;SDS011;8263;48.880;9.276;2023-02-25T08:07:46;139.07;;;129.00;;
16308;SDS011;8263;48.880;9.276;2023-02-25T08:10:12;141.43;;;131.13;;
16308;SDS011;8263;48.880;9.276;2023-02-25T08:12:38;140.38;;;130.18;;
16308;SDS011;8263;48.880;9.276;2023-02-25T08:15:07;139.65;;;129.52;;
16308;SDS011;8263;48.880;9.276;2023-02-25T08:17:33;141.38;;;130.57;;
16308;SDS011;8263;48.880;9.276;2023-02-25T08:20:00;139.15;;;129.07;;
16308;SDS011;8263;48.880;9.276;2023-02-25T08:22:29;140.52;;;130.32;;
16308;SDS011;8263;48.880;9.276;2023-02-25T08:24:55;139.73;;;129.63;;
16308;SDS011;8263;48.880;9.276;2023-02-25T08:27:21;140.38;;;130.07;;
16308;SDS011;8263;48.880;9.276;2023-02-25T08:29:48;138.20;;;128.20;;
16308;SDS011;8263;48.880;9.276;2023-02-25T08:32:16;139.40;;;129.30;;
16308;SDS011;8263;48.880;9.276;2023-02-25T08:34:42;139.80;;;129.68;;
16308;SDS011;8263;48.880;9.276;2023-02-25T08:37:09;139.73;;;129.60;;
16308;SDS011;8263;48.880;9.276;2023-02-25T08:39:36;138.23;;;128.25;;
16308;SDS011;8263;48.880;9.276;2023-02-25T08:42:03;139.57;;;129.48;;
16308;SDS011;8263;48.880;9.276;2023-02-25T08:44:29;139.18;;;129.07;;
16308;SDS011;8263;48.880;9.276;2023-02-25T08:46:55;137.60;;;127.68;;
16308;SDS011;8263;48.880;9.276;2023-02-25T08:49:23;140.98;;;130.73;;
16308;SDS011;8263;48.880;9.276;2023-02-25T08:51:49;138.52;;;128.55;;
16308;SDS011;8263;48.880;9.276;2023-02-25T08:54:16;139.60;;;129.50;;
16308;SDS011;8263;48.880;9.276;2023-02-25T08:56:43;137.27;;;127.40;;
16308;SDS011;8263;48.880;9.276;2023-02-25T08:59:09;138.52;;;128.52;;
16308;SDS011;8263;48.880;9.276;2023-02-25T09:01:36;139.70;;;129.60;;
16308;SDS011;8263;48.880;9.276;2023-02-25T09:04:09;139.00;;;128.95;;
16308;SDS011;8263;48.880;9.276;2023-02-25T09:06:37;141.10;;;130.88;;
16308;SDS011;8263;48.880;9.276;2023-02-25T09:09:04;140.38;;;130.18;;
16308;SDS011;8263;48.880;9.276;2023-02-25T09:11:31;139.88;;;129.77;;
16308;SDS011;8263;48.880;9.276;2023-02-25T09:13:57;140.65;;;129.18;;
16308;SDS011;8263;48.880;9.276;2023-02-25T09:16:26;140.63;;;130.40;;
16308;SDS011;8263;48.880;9.276;2023-02-25T09:18:53;142.43;;;131.13;;
16308;SDS011;8263;48.880;9.276;2023-02-25T09:21:20;139.68;;;129.57;;
16308;SDS011;8263;48.880;9.276;2023-02-25T09:23:47;139.20;;;129.07;;
16308;SDS011;8263;48.880;9.276;2023-02-25T09:26:15;139.35;;;129.25;;
16308;SDS011;8263;48.880;9.276;2023-02-25T09:28:42;137.38;;;127.43;;
16308;SDS011;8263;48.880;9.276;2023-02-25T09:31:09;140.00;;;129.85;;
16308;SDS011;8263;48.880;9.276;2023-02-25T09:33:36;137.68;;;127.78;;
16308;SDS011;8263;48.880;9.276;2023-02-25T09:36:03;137.55;;;127.65;;
16308;SDS011;8263;48.880;9.276;2023-02-25T09:38:31;137.60;;;127.70;;
16308;SDS011;8263;48.880;9.276;2023-02-25T09:40:59;138.45;;;128.38;;
16308;SDS011;8263;48.880;9.276;2023-02-25T09:43:26;139.45;;;129.30;;
16308;SDS011;8263;48.880;9.276;2023-02-25T09:45:57;137.93;;;128.02;;
16308;SDS011;8263;48.880;9.276;2023-02-25T09:48:25;136.50;;;126.65;;
16308;SDS011;8263;48.880;9.276;2023-02-25T09:50:53;138.70;;;128.70;;
16308;SDS011;8263;48.880;9.276;2023-02-25T09:53:23;139.00;;;128.90;;
16308;SDS011;8263;48.880;9.276;2023-02-25T09:55:52;138.82;;;128.80;;
16308;SDS011;8263;48.880;9.276;2023-02-25T09:58:23;138.98;;;128.93;;
16308;SDS011;8263;48.880;9.276;2023-02-25T10:00:53;139.93;;;129.80;;
16308;SDS011;8263;48.880;9.276;2023-02-25T10:03:23;139.15;;;129.10;;
16308;SDS011;8263;48.880;9.276;2023-02-25T10:05:52;137.43;;;127.53;;
16308;SDS011;8263;48.880;9.276;2023-02-25T10:08:22;138.50;;;128.52;;
16308;SDS011;8263;48.880;9.276;2023-02-25T10:10:54;138.50;;;128.52;;
16308;SDS011;8263;48.880;9.276;2023-02-25T10:13:30;139.18;;;129.07;;
16308;SDS011;8263;48.880;9.276;2023-02-25T10:16:01;138.65;;;128.65;;
16308;SDS011;8263;48.880;9.276;2023-02-25T10:18:33;139.30;;;129.20;;
16308;SDS011;8263;48.880;9.276;2023-02-25T10:21:06;138.27;;;128.20;;
16308;SDS011;8263;48.880;9.276;2023-02-25T10:23:47;140.25;;;130.10;;
16308;SDS011;8263;48.880;9.276;2023-02-25T10:26:16;138.77;;;128.80;;
16308;SDS011;8263;48.880;9.276;2023-02-25T10:28:45;139.35;;;129.27;;
16308;SDS011;8263;48.880;9.276;2023-02-25T10:31:13;139.02;;;129.00;;
16308;SDS011;8263;48.880;9.276;2023-02-25T10:33:41;140.85;;;130.57;;
16308;SDS011;8263;48.880;9.276;2023-02-25T10:36:11;138.70;;;128.70;;
16308;SDS011;8263;48.880;9.276;2023-02-25T10:38:41;139.27;;;129.20;;
16308;SDS011;8263;48.880;9.276;2023-02-25T10:41:09;140.80;;;129.95;;
16308;SDS011;8263;48.880;9.276;2023-02-25T10:43:36;140.98;;;130.57;;
16308;SDS011;8263;48.880;9.276;2023-02-25T10:46:06;139.85;;;129.63;;
16308;SDS011;8263;48.880;9.276;2023-02-25T10:48:33;139.50;;;129.45;;
16308;SDS011;8263;48.880;9.276;2023-02-25T10:51:01;138.15;;;127.90;;
16308;SDS011;8263;48.880;9.276;2023-02-25T10:53:29;138.02;;;128.05;;
16308;SDS011;8263;48.880;9.276;2023-02-25T10:55:57;137.52;;;127.55;;
16308;SDS011;8263;48.880;9.276;2023-02-25T10:58:26;139.80;;;129.50;;
16308;SDS011;8263;48.880;9.276;2023-02-25T11:00:57;138.75;;;128.73;;
16308;SDS011;8263;48.880;9.276;2023-02-25T11:03:26;137.65;;;127.72;;
16308;SDS011;8263;48.880;9.276;2023-02-25T11:06:06;137.77;;;127.85;;
16308;SDS011;8263;48.880;9.276;2023-02-25T11:08:33;140.27;;;130.13;;
16308;SDS011;8263;48.880;9.276;2023-02-25T11:11:01;137.98;;;128.07;;
16308;SDS011;8263;48.880;9.276;2023-02-25T11:13:29;138.60;;;128.63;;
16308;SDS011;8263;48.880;9.276;2023-02-25T11:15:56;138.52;;;128.57;;
16308;SDS011;8263;48.880;9.276;2023-02-25T11:18:27;139.07;;;129.05;;
16308;SDS011;8263;48.880;9.276;2023-02-25T11:20:55;138.23;;;128.30;;
16308;SDS011;8263;48.880;9.276;2023-02-25T11:23:22;136.70;;;126.93;;
16308;SDS011;8263;48.880;9.276;2023-02-25T11:25:49;139.05;;;129.02;;
16308;SDS011;8263;48.880;9.276;2023-02-25T11:28:19;138.18;;;128.20;;
16308;SDS011;8263;48.880;9.276;2023-02-25T11:30:48;139.40;;;129.40;;
16308;SDS011;8263;48.880;9.276;2023-02-25T11:33:17;137.00;;;127.20;;
16308;SDS011;8263;48.880;9.276;2023-02-25T11:35:52;137.30;;;127.43;;
16308;SDS011;8263;48.880;9.276;2023-02-25T11:38:23;137.88;;;127.95;;
16308;SDS011;8263;48.880;9.276;2023-02-25T11:40:50;136.95;;;127.15;;
16308;SDS011;8263;48.880;9.276;2023-02-25T11:43:17;138.05;;;128.13;;
16308;SDS011;8263;48.880;9.276;2023-02-25T11:45:52;137.73;;;127.78;;
16308;SDS011;8263;48.880;9.276;2023-02-25T11:48:20;136.05;;;126.35;;
16308;SDS011;8263;48.880;9.276;2023-02-25T11:50:49;137.18;;;127.35;;
16308;SDS011;8263;48.880;9.276;2023-02-25T11:53:20;139.38;;;129.30;;
16308;SDS011;8263;48.880;9.276;2023-02-25T11:55:52;138.70;;;128.73;;
16308;SDS011;8263;48.880;9.276;2023-02-25T11:58:23;137.27;;;127.43;;
16308;SDS011;8263;48.880;9.276;2023-02-25T12:00:54;139.20;;;129.10;;
16308;SDS011;8263;48.880;9.276;2023-02-25T12:06:08;139.20;;;129.20;;
16308;SDS011;8263;48.880;9.276;2023-02-25T12:08:45;137.70;;;127.82;;
16308;SDS011;8263;48.880;9.276;2023-02-25T12:16:58;138.02;;;128.13;;
16308;SDS011;8263;48.880;9.276;2023-02-25T12:19:35;139.75;;;129.68;;
16308;SDS011;8263;48.880;9.276;2023-02-25T12:22:29;138.68;;;128.63;;
16308;SDS011;8263;48.880;9.276;2023-02-25T12:25:06;140.18;;;129.98;;
16308;SDS011;8263;48.880;9.276;2023-02-25T12:27:40;140.10;;;130.00;;
16308;SDS011;8263;48.880;9.276;2023-02-25T12:30:29;138.98;;;128.95;;
16308;SDS011;8263;48.880;9.276;2023-02-25T12:33:01;142.00;;;131.60;;
16308;SDS011;8263;48.880;9.276;2023-02-25T12:35:40;139.77;;;129.68;;
16308;SDS011;8263;48.880;9.276;2023-02-25T12:38:21;140.85;;;130.57;;
16308;SDS011;8263;48.880;9.276;2023-02-25T12:41:02;139.82;;;129.73;;
16308;SDS011;8263;48.880;9.276;2023-02-25T12:43:36;139.55;;;129.38;;
16308;SDS011;8263;48.880;9.276;2023-02-25T12:46:09;135.07;;;125.55;;
16308;SDS011;8263;48.880;9.276;2023-02-25T12:54:06;137.40;;;127.50;;
16308;SDS011;8263;48.880;9.276;2023-02-25T12:59:24;137.77;;;127.75;;
16308;SDS011;8263;48.880;9.276;2023-02-25T13:01:55;140.70;;;130.25;;
16308;SDS011;8263;48.880;9.276;2023-02-25T13:07:19;136.25;;;126.47;;
16308;SDS011;8263;48.880;9.276;2023-02-25T13:09:57;138.20;;;128.25;;
16308;SDS011;8263;48.880;9.276;2023-02-25T13:12:32;139.13;;;129.07;;
16308;SDS011;8263;48.880;9.276;2023-02-25T13:15:03;136.88;;;127.07;;
16308;SDS011;8263;48.880;9.276;2023-02-25T13:17:40;136.80;;;126.97;;
16308;SDS011;8263;48.880;9.276;2023-02-25T13:23:01;137.63;;;127.72;;
16308;SDS011;8263;48.880;9.276;2023-02-25T13:25:38;138.77;;;128.70;;
16308;SDS011;8263;48.880;9.276;2023-02-25T13:28:13;138.13;;;128.18;;
16308;SDS011;8263;48.880;9.276;2023-02-25T13:30:45;139.77;;;129.68;;
16308;SDS011;8263;48.880;9.276;2023-02-25T13:33:18;137.93;;;128.00;;
16308;SDS011;8263;48.880;9.276;2023-02-25T13:35:51;139.35;;;129.30;;
16308;SDS011;8263;48.880;9.276;2023-02-25T13:38:26;137.55;;;127.65;;
16308;SDS011;8263;48.880;9.276;2023-02-25T13:41:00;137.88;;;127.97;;
16308;SDS011;8263;48.880;9.276;2023-02-25T13:46:44;137.55;;;127.65;;
16308;SDS011;8263;48.880;9.276;2023-02-25T13:49:19;137.88;;;127.97;;
16308;SDS011;8263;48.880;9.276;2023-02-25T13:51:56;137.20;;;127.38;;
16308;SDS011;8263;48.880;9.276;2023-02-25T13:54:31;137.13;;;127.25;;
16308;SDS011;8263;48.880;9.276;2023-02-25T13:57:06;136.60;;;126.80;;
16308;SDS011;8263;48.880;9.276;2023-02-25T14:05:12;137.73;;;127.68;;
16308;SDS011;8263;48.880;9.276;2023-02-25T14:10:36;136.48;;;126.30;;
16308;SDS011;8263;48.880;9.276;2023-02-25T14:13:18;135.75;;;126.07;;
16308;SDS011;8263;48.880;9.276;2023-02-25T14:15:51;136.35;;;126.63;;
16308;SDS011;8263;48.880;9.276;2023-02-25T14:18:25;136.10;;;126.40;;
16308;SDS011;8263;48.880;9.276;2023-02-25T14:21:02;134.93;;;125.22;;
16308;SDS011;8263;48.880;9.276;2023-02-25T14:23:38;136.73;;;126.97;;
16308;SDS011;8263;48.880;9.276;2023-02-25T14:26:17;135.45;;;125.85;;
16308;SDS011;8263;48.880;9.276;2023-02-25T14:28:51;133.57;;;124.10;;
16308;SDS011;8263;48.880;9.276;2023-02-25T14:31:19;134.80;;;125.25;;
16308;SDS011;8263;48.880;9.276;2023-02-25T14:33:54;134.73;;;125.18;;
16308;SDS011;8263;48.880;9.276;2023-02-25T14:36:28;134.63;;;125.10;;
16308;SDS011;8263;48.880;9.276;2023-02-25T14:39:10;135.27;;;125.65;;
16308;SDS011;8263;48.880;9.276;2023-02-25T14:41:44;135.00;;;125.20;;
16308;SDS011;8263;48.880;9.276;2023-02-25T14:44:26;136.10;;;126.40;;
16308;SDS011;8263;48.880;9.276;2023-02-25T14:46:55;133.75;;;124.25;;
16308;SDS011;8263;48.880;9.276;2023-02-25T14:49:24;134.90;;;125.32;;
16308;SDS011;8263;48.880;9.276;2023-02-25T14:57:25;134.27;;;124.72;;
16308;SDS011;8263;48.880;9.276;2023-02-25T15:00:09;135.07;;;125.47;;
16308;SDS011;8263;48.880;9.276;2023-02-25T15:02:49;133.05;;;123.55;;
16308;SDS011;8263;48.880;9.276;2023-02-25T15:05:23;135.38;;;125.78;;